sensor_id;sensor_type;location;lat;lon;timestamp;P1;durP1;ratioP1;P2;durP2;ratioP2
52530;SDS011;38441;52.894;6.040;2024-01-27T00:00:42;11.73;;;2.25;;
52530;SDS011;38441;52.894;6.040;2024-01-27T00:03:08;15.95;;;3.00;;
52530;SDS011;38441;52.894;6.040;2024-01-27T00:05:34;13.65;;;2.30;;
52530;SDS011;38441;52.894;6.040;2024-01-27T00:07:59;18.10;;;3.08;;
52530;SDS011;38441;52.894;6.040;2024-01-27T00:10:25;19.85;;;2.75;;
52530;SDS011;38441;52.894;6.040;2024-01-27T00:12:51;14.55;;;2.63;;
52530;SDS011;38441;52.894;6.040;2024-01-27T00:15:18;15.63;;;1.95;;
52530;SDS011;38441;52.894;6.040;2024-01-27T00:17:44;17.70;;;3.00;;
52530;SDS011;38441;52.894;6.040;2024-01-27T00:20:10;11.98;;;2.33;;
52530;SDS011;38441;52.894;6.040;2024-01-27T00:22:36;14.05;;;2.38;;
52530;SDS011;38441;52.894;6.040;2024-01-27T00:25:02;13.75;;;2.22;;
52530;SDS011;38441;52.894;6.040;2024-01-27T00:27:28;14.10;;;2.28;;
52530;SDS011;38441;52.894;6.040;2024-01-27T00:29:54;11.10;;;2.25;;
52530;SDS011;38441;52.894;6.040;2024-01-27T00:32:20;16.23;;;2.90;;
52530;SDS011;38441;52.894;6.040;2024-01-27T00:34:46;14.80;;;2.50;;
52530;SDS011;38441;52.894;6.040;2024-01-27T00:37:12;18.88;;;2.58;;
52530;SDS011;38441;52.894;6.040;2024-01-27T00:39:38;13.45;;;2.00;;
52530;SDS011;38441;52.894;6.040;2024-01-27T00:42:04;8.77;;;1.98;;
52530;SDS011;38441;52.894;6.040;2024-01-27T00:44:30;12.75;;;2.10;;
52530;SDS011;38441;52.894;6.040;2024-01-27T00:46:56;12.90;;;2.00;;
52530;SDS011;38441;52.894;6.040;2024-01-27T00:49:22;15.00;;;2.08;;
52530;SDS011;38441;52.894;6.040;2024-01-27T00:51:48;17.17;;;2.15;;
52530;SDS011;38441;52.894;6.040;2024-01-27T00:54:14;16.17;;;2.78;;
52530;SDS011;38441;52.894;6.040;2024-01-27T00:56:40;15.50;;;3.13;;
52530;SDS011;38441;52.894;6.040;2024-01-27T00:59:06;12.60;;;2.15;;
52530;SDS011;38441;52.894;6.040;2024-01-27T01:01:32;11.48;;;2.17;;
52530;SDS011;38441;52.894;6.040;2024-01-27T01:03:58;9.95;;;1.88;;
52530;SDS011;38441;52.894;6.040;2024-01-27T01:06:24;13.63;;;2.63;;
52530;SDS011;38441;52.894;6.040;2024-01-27T01:08:50;16.80;;;2.53;;
52530;SDS011;38441;52.894;6.040;2024-01-27T01:11:16;19.40;;;2.17;;
52530;SDS011;38441;52.894;6.040;2024-01-27T01:13:42;13.57;;;2.85;;
52530;SDS011;38441;52.894;6.040;2024-01-27T01:16:08;10.18;;;1.85;;
52530;SDS011;38441;52.894;6.040;2024-01-27T01:18:34;15.20;;;2.38;;
52530;SDS011;38441;52.894;6.040;2024-01-27T01:21:01;13.18;;;2.10;;
52530;SDS011;38441;52.894;6.040;2024-01-27T01:23:27;13.40;;;2.92;;
52530;SDS011;38441;52.894;6.040;2024-01-27T01:25:53;11.32;;;2.22;;
52530;SDS011;38441;52.894;6.040;2024-01-27T01:28:19;12.88;;;2.35;;
52530;SDS011;38441;52.894;6.040;2024-01-27T01:30:45;16.23;;;2.13;;
52530;SDS011;38441;52.894;6.040;2024-01-27T01:33:11;13.57;;;1.92;;
52530;SDS011;38441;52.894;6.040;2024-01-27T01:35:37;12.45;;;2.40;;
52530;SDS011;38441;52.894;6.040;2024-01-27T01:38:03;11.13;;;1.75;;
52530;SDS011;38441;52.894;6.040;2024-01-27T01:40:29;10.75;;;1.73;;
52530;SDS011;38441;52.894;6.040;2024-01-27T01:42:55;13.13;;;1.90;;
52530;SDS011;38441;52.894;6.040;2024-01-27T01:45:21;16.30;;;2.60;;
52530;SDS011;38441;52.894;6.040;2024-01-27T01:47:47;11.38;;;2.15;;
52530;SDS011;38441;52.894;6.040;2024-01-27T01:50:13;12.02;;;2.08;;
52530;SDS011;38441;52.894;6.040;2024-01-27T01:52:39;12.40;;;2.17;;
52530;SDS011;38441;52.894;6.040;2024-01-27T01:55:05;14.00;;;2.17;;
52530;SDS011;38441;52.894;6.040;2024-01-27T01:57:31;14.77;;;1.90;;
52530;SDS011;38441;52.894;6.040;2024-01-27T01:59:58;12.98;;;2.80;;
52530;SDS011;38441;52.894;6.040;2024-01-27T02:02:24;13.85;;;2.47;;
52530;SDS011;38441;52.894;6.040;2024-01-27T02:04:49;9.80;;;2.65;;
52530;SDS011;38441;52.894;6.040;2024-01-27T02:07:15;11.43;;;1.88;;
52530;SDS011;38441;52.894;6.040;2024-01-27T02:09:41;11.63;;;1.77;;
52530;SDS011;38441;52.894;6.040;2024-01-27T02:12:09;15.85;;;2.45;;
52530;SDS011;38441;52.894;6.040;2024-01-27T02:14:34;18.52;;;2.33;;
52530;SDS011;38441;52.894;6.040;2024-01-27T02:17:00;9.55;;;2.50;;
52530;SDS011;38441;52.894;6.040;2024-01-27T02:19:26;11.63;;;2.38;;
52530;SDS011;38441;52.894;6.040;2024-01-27T02:21:52;12.43;;;2.15;;
52530;SDS011;38441;52.894;6.040;2024-01-27T02:24:18;15.77;;;2.80;;
52530;SDS011;38441;52.894;6.040;2024-01-27T02:26:44;13.82;;;2.40;;
52530;SDS011;38441;52.894;6.040;2024-01-27T02:29:10;14.63;;;1.98;;
52530;SDS011;38441;52.894;6.040;2024-01-27T02:31:36;17.05;;;2.25;;
52530;SDS011;38441;52.894;6.040;2024-01-27T02:34:02;10.35;;;1.88;;
52530;SDS011;38441;52.894;6.040;2024-01-27T02:36:28;19.90;;;2.88;;
52530;SDS011;38441;52.894;6.040;2024-01-27T02:38:54;17.20;;;2.40;;
52530;SDS011;38441;52.894;6.040;2024-01-27T02:41:20;12.07;;;1.65;;
52530;SDS011;38441;52.894;6.040;2024-01-27T02:43:46;11.63;;;2.33;;
52530;SDS011;38441;52.894;6.040;2024-01-27T02:46:12;13.65;;;2.33;;
52530;SDS011;38441;52.894;6.040;2024-01-27T02:48:40;15.13;;;2.53;;
52530;SDS011;38441;52.894;6.040;2024-01-27T02:51:07;14.25;;;1.83;;
52530;SDS011;38441;52.894;6.040;2024-01-27T02:53:33;13.70;;;1.88;;
52530;SDS011;38441;52.894;6.040;2024-01-27T02:55:59;12.65;;;1.92;;
52530;SDS011;38441;52.894;6.040;2024-01-27T02:58:24;10.45;;;1.55;;
52530;SDS011;38441;52.894;6.040;2024-01-27T03:00:50;13.13;;;2.08;;
52530;SDS011;38441;52.894;6.040;2024-01-27T03:03:16;14.70;;;1.90;;
52530;SDS011;38441;52.894;6.040;2024-01-27T03:05:42;8.48;;;1.60;;
52530;SDS011;38441;52.894;6.040;2024-01-27T03:08:07;15.48;;;2.53;;
52530;SDS011;38441;52.894;6.040;2024-01-27T03:10:33;15.55;;;2.63;;
52530;SDS011;38441;52.894;6.040;2024-01-27T03:12:59;11.57;;;1.80;;
52530;SDS011;38441;52.894;6.040;2024-01-27T03:15:24;13.10;;;1.90;;
52530;SDS011;38441;52.894;6.040;2024-01-27T03:17:50;11.38;;;1.90;;
52530;SDS011;38441;52.894;6.040;2024-01-27T03:20:16;12.77;;;2.15;;
52530;SDS011;38441;52.894;6.040;2024-01-27T03:22:42;11.80;;;1.90;;
52530;SDS011;38441;52.894;6.040;2024-01-27T03:25:09;8.73;;;1.80;;
52530;SDS011;38441;52.894;6.040;2024-01-27T03:27:35;12.27;;;2.08;;
52530;SDS011;38441;52.894;6.040;2024-01-27T03:30:02;14.18;;;2.08;;
52530;SDS011;38441;52.894;6.040;2024-01-27T03:32:28;14.50;;;2.47;;
52530;SDS011;38441;52.894;6.040;2024-01-27T03:34:57;11.57;;;1.70;;
52530;SDS011;38441;52.894;6.040;2024-01-27T03:37:26;11.13;;;1.77;;
52530;SDS011;38441;52.894;6.040;2024-01-27T03:39:52;10.63;;;2.20;;
52530;SDS011;38441;52.894;6.040;2024-01-27T03:42:18;13.23;;;2.20;;
52530;SDS011;38441;52.894;6.040;2024-01-27T03:44:44;11.90;;;2.00;;
52530;SDS011;38441;52.894;6.040;2024-01-27T03:47:09;12.80;;;2.00;;
52530;SDS011;38441;52.894;6.040;2024-01-27T03:49:35;11.50;;;2.22;;
52530;SDS011;38441;52.894;6.040;2024-01-27T03:52:01;14.20;;;2.13;;
52530;SDS011;38441;52.894;6.040;2024-01-27T03:54:27;14.07;;;2.13;;
52530;SDS011;38441;52.894;6.040;2024-01-27T03:56:53;15.52;;;2.30;;
52530;SDS011;38441;52.894;6.040;2024-01-27T03:59:20;13.15;;;2.38;;
52530;SDS011;38441;52.894;6.040;2024-01-27T04:01:47;14.93;;;2.13;;
52530;SDS011;38441;52.894;6.040;2024-01-27T04:04:12;13.80;;;2.38;;
52530;SDS011;38441;52.894;6.040;2024-01-27T04:06:39;12.15;;;2.22;;
52530;SDS011;38441;52.894;6.040;2024-01-27T04:09:05;16.85;;;2.47;;
52530;SDS011;38441;52.894;6.040;2024-01-27T04:11:35;11.68;;;2.58;;
52530;SDS011;38441;52.894;6.040;2024-01-27T04:14:03;11.80;;;2.67;;
52530;SDS011;38441;52.894;6.040;2024-01-27T04:16:29;13.95;;;2.20;;
52530;SDS011;38441;52.894;6.040;2024-01-27T04:18:56;10.32;;;2.15;;
52530;SDS011;38441;52.894;6.040;2024-01-27T04:21:22;6.65;;;1.60;;
52530;SDS011;38441;52.894;6.040;2024-01-27T04:23:48;13.60;;;2.08;;
52530;SDS011;38441;52.894;6.040;2024-01-27T04:26:14;18.20;;;2.20;;
52530;SDS011;38441;52.894;6.040;2024-01-27T04:28:41;13.52;;;2.22;;
52530;SDS011;38441;52.894;6.040;2024-01-27T04:31:07;15.60;;;2.25;;
52530;SDS011;38441;52.894;6.040;2024-01-27T04:33:32;10.25;;;2.05;;
52530;SDS011;38441;52.894;6.040;2024-01-27T04:35:58;16.23;;;2.58;;
52530;SDS011;38441;52.894;6.040;2024-01-27T04:38:24;13.40;;;2.20;;
52530;SDS011;38441;52.894;6.040;2024-01-27T04:40:51;15.05;;;2.08;;
52530;SDS011;38441;52.894;6.040;2024-01-27T04:43:20;14.82;;;2.33;;
52530;SDS011;38441;52.894;6.040;2024-01-27T04:45:46;13.43;;;2.72;;
52530;SDS011;38441;52.894;6.040;2024-01-27T04:48:12;12.63;;;1.92;;
52530;SDS011;38441;52.894;6.040;2024-01-27T04:50:38;18.63;;;2.33;;
52530;SDS011;38441;52.894;6.040;2024-01-27T04:53:04;15.00;;;2.53;;
52530;SDS011;38441;52.894;6.040;2024-01-27T04:55:30;14.55;;;2.22;;
52530;SDS011;38441;52.894;6.040;2024-01-27T04:57:56;11.30;;;1.95;;
52530;SDS011;38441;52.894;6.040;2024-01-27T05:00:23;15.05;;;2.22;;
52530;SDS011;38441;52.894;6.040;2024-01-27T05:02:51;19.08;;;2.10;;
52530;SDS011;38441;52.894;6.040;2024-01-27T05:05:17;17.90;;;1.83;;
52530;SDS011;38441;52.894;6.040;2024-01-27T05:07:46;12.25;;;1.90;;
52530;SDS011;38441;52.894;6.040;2024-01-27T05:10:14;14.13;;;2.40;;
52530;SDS011;38441;52.894;6.040;2024-01-27T05:12:40;14.23;;;2.08;;
52530;SDS011;38441;52.894;6.040;2024-01-27T05:15:06;15.55;;;2.05;;
52530;SDS011;38441;52.894;6.040;2024-01-27T05:17:33;13.15;;;2.17;;
52530;SDS011;38441;52.894;6.040;2024-01-27T05:19:59;11.68;;;2.38;;
52530;SDS011;38441;52.894;6.040;2024-01-27T05:22:24;16.92;;;2.97;;
52530;SDS011;38441;52.894;6.040;2024-01-27T05:24:50;16.80;;;2.63;;
52530;SDS011;38441;52.894;6.040;2024-01-27T05:27:16;13.90;;;2.40;;
52530;SDS011;38441;52.894;6.040;2024-01-27T05:29:42;14.93;;;2.88;;
52530;SDS011;38441;52.894;6.040;2024-01-27T05:32:08;19.92;;;3.40;;
52530;SDS011;38441;52.894;6.040;2024-01-27T05:34:34;14.35;;;2.10;;
52530;SDS011;38441;52.894;6.040;2024-01-27T05:37:00;21.10;;;2.42;;
52530;SDS011;38441;52.894;6.040;2024-01-27T05:39:27;14.32;;;2.33;;
52530;SDS011;38441;52.894;6.040;2024-01-27T05:41:54;11.93;;;2.42;;
52530;SDS011;38441;52.894;6.040;2024-01-27T05:44:20;10.20;;;2.13;;
52530;SDS011;38441;52.894;6.040;2024-01-27T05:46:46;13.85;;;2.30;;
52530;SDS011;38441;52.894;6.040;2024-01-27T05:49:12;16.05;;;2.38;;
52530;SDS011;38441;52.894;6.040;2024-01-27T05:51:37;18.10;;;2.25;;
52530;SDS011;38441;52.894;6.040;2024-01-27T05:54:03;15.50;;;2.65;;
52530;SDS011;38441;52.894;6.040;2024-01-27T05:56:29;12.50;;;2.65;;
52530;SDS011;38441;52.894;6.040;2024-01-27T05:58:55;16.48;;;2.38;;
52530;SDS011;38441;52.894;6.040;2024-01-27T06:01:21;13.93;;;2.28;;
52530;SDS011;38441;52.894;6.040;2024-01-27T06:03:47;15.18;;;2.47;;
52530;SDS011;38441;52.894;6.040;2024-01-27T06:06:13;15.18;;;2.45;;
52530;SDS011;38441;52.894;6.040;2024-01-27T06:08:39;13.07;;;2.25;;
52530;SDS011;38441;52.894;6.040;2024-01-27T06:11:06;13.40;;;3.08;;
52530;SDS011;38441;52.894;6.040;2024-01-27T06:13:32;17.42;;;2.85;;
52530;SDS011;38441;52.894;6.040;2024-01-27T06:15:58;11.43;;;2.20;;
52530;SDS011;38441;52.894;6.040;2024-01-27T06:18:24;13.63;;;2.55;;
52530;SDS011;38441;52.894;6.040;2024-01-27T06:20:50;15.88;;;2.85;;
52530;SDS011;38441;52.894;6.040;2024-01-27T06:23:16;20.50;;;2.47;;
52530;SDS011;38441;52.894;6.040;2024-01-27T06:25:42;12.52;;;2.45;;
52530;SDS011;38441;52.894;6.040;2024-01-27T06:28:08;14.35;;;2.35;;
52530;SDS011;38441;52.894;6.040;2024-01-27T06:30:33;17.00;;;2.40;;
52530;SDS011;38441;52.894;6.040;2024-01-27T06:32:59;15.65;;;2.67;;
52530;SDS011;38441;52.894;6.040;2024-01-27T06:35:25;11.30;;;2.30;;
52530;SDS011;38441;52.894;6.040;2024-01-27T06:37:51;14.50;;;2.15;;
52530;SDS011;38441;52.894;6.040;2024-01-27T06:40:17;10.02;;;2.42;;
52530;SDS011;38441;52.894;6.040;2024-01-27T06:42:43;14.52;;;2.78;;
52530;SDS011;38441;52.894;6.040;2024-01-27T06:45:09;14.40;;;2.42;;
52530;SDS011;38441;52.894;6.040;2024-01-27T06:47:36;15.02;;;3.00;;
52530;SDS011;38441;52.894;6.040;2024-01-27T06:50:02;12.50;;;3.08;;
52530;SDS011;38441;52.894;6.040;2024-01-27T06:52:28;16.42;;;4.10;;
52530;SDS011;38441;52.894;6.040;2024-01-27T06:54:54;18.45;;;4.40;;
52530;SDS011;38441;52.894;6.040;2024-01-27T06:57:20;12.27;;;2.80;;
52530;SDS011;38441;52.894;6.040;2024-01-27T06:59:47;18.48;;;3.05;;
52530;SDS011;38441;52.894;6.040;2024-01-27T07:04:56;14.30;;;3.13;;
52530;SDS011;38441;52.894;6.040;2024-01-27T07:07:24;14.85;;;3.22;;
52530;SDS011;38441;52.894;6.040;2024-01-27T07:09:52;13.43;;;3.20;;
52530;SDS011;38441;52.894;6.040;2024-01-27T07:12:18;13.93;;;2.58;;
52530;SDS011;38441;52.894;6.040;2024-01-27T07:14:44;9.13;;;2.67;;
52530;SDS011;38441;52.894;6.040;2024-01-27T07:17:10;16.73;;;3.40;;
52530;SDS011;38441;52.894;6.040;2024-01-27T07:19:36;14.32;;;3.45;;
52530;SDS011;38441;52.894;6.040;2024-01-27T07:22:02;18.02;;;3.47;;
52530;SDS011;38441;52.894;6.040;2024-01-27T07:24:31;15.35;;;2.78;;
52530;SDS011;38441;52.894;6.040;2024-01-27T07:26:57;11.65;;;3.60;;
52530;SDS011;38441;52.894;6.040;2024-01-27T07:29:23;12.27;;;3.45;;
52530;SDS011;38441;52.894;6.040;2024-01-27T07:31:49;11.98;;;3.58;;
52530;SDS011;38441;52.894;6.040;2024-01-27T07:34:15;20.63;;;4.30;;
52530;SDS011;38441;52.894;6.040;2024-01-27T07:36:42;15.95;;;3.78;;
52530;SDS011;38441;52.894;6.040;2024-01-27T07:39:08;15.00;;;3.72;;
52530;SDS011;38441;52.894;6.040;2024-01-27T07:41:34;16.67;;;4.68;;
52530;SDS011;38441;52.894;6.040;2024-01-27T07:44:09;18.50;;;4.63;;
52530;SDS011;38441;52.894;6.040;2024-01-27T07:46:36;17.95;;;4.40;;
52530;SDS011;38441;52.894;6.040;2024-01-27T07:49:08;13.02;;;3.47;;
52530;SDS011;38441;52.894;6.040;2024-01-27T07:51:35;19.83;;;4.40;;
52530;SDS011;38441;52.894;6.040;2024-01-27T07:54:01;15.02;;;4.25;;
52530;SDS011;38441;52.894;6.040;2024-01-27T07:56:27;17.50;;;4.35;;
52530;SDS011;38441;52.894;6.040;2024-01-27T07:58:53;16.50;;;4.35;;
52530;SDS011;38441;52.894;6.040;2024-01-27T08:01:19;19.17;;;4.75;;
52530;SDS011;38441;52.894;6.040;2024-01-27T08:03:45;20.17;;;5.35;;
52530;SDS011;38441;52.894;6.040;2024-01-27T08:06:15;15.90;;;4.70;;
52530;SDS011;38441;52.894;6.040;2024-01-27T08:08:45;13.75;;;4.43;;
52530;SDS011;38441;52.894;6.040;2024-01-27T08:11:12;17.15;;;5.00;;
52530;SDS011;38441;52.894;6.040;2024-01-27T08:13:38;14.60;;;5.10;;
52530;SDS011;38441;52.894;6.040;2024-01-27T08:16:10;17.38;;;4.60;;
52530;SDS011;38441;52.894;6.040;2024-01-27T08:18:38;15.80;;;4.90;;
52530;SDS011;38441;52.894;6.040;2024-01-27T08:21:04;15.45;;;4.90;;
52530;SDS011;38441;52.894;6.040;2024-01-27T08:23:30;14.50;;;5.65;;
52530;SDS011;38441;52.894;6.040;2024-01-27T08:25:56;15.30;;;4.28;;
52530;SDS011;38441;52.894;6.040;2024-01-27T08:28:22;13.73;;;4.60;;
52530;SDS011;38441;52.894;6.040;2024-01-27T08:30:48;16.20;;;4.68;;
52530;SDS011;38441;52.894;6.040;2024-01-27T08:33:14;12.00;;;4.32;;
52530;SDS011;38441;52.894;6.040;2024-01-27T08:35:40;17.27;;;4.95;;
52530;SDS011;38441;52.894;6.040;2024-01-27T08:38:06;17.73;;;4.38;;
52530;SDS011;38441;52.894;6.040;2024-01-27T08:40:33;13.93;;;4.22;;
52530;SDS011;38441;52.894;6.040;2024-01-27T08:42:59;14.65;;;5.35;;
52530;SDS011;38441;52.894;6.040;2024-01-27T08:45:25;18.30;;;4.90;;
52530;SDS011;38441;52.894;6.040;2024-01-27T08:47:51;17.17;;;6.03;;
52530;SDS011;38441;52.894;6.040;2024-01-27T08:50:17;15.38;;;5.22;;
52530;SDS011;38441;52.894;6.040;2024-01-27T08:52:43;15.60;;;4.68;;
52530;SDS011;38441;52.894;6.040;2024-01-27T08:55:11;17.23;;;4.70;;
52530;SDS011;38441;52.894;6.040;2024-01-27T08:57:36;17.90;;;4.90;;
52530;SDS011;38441;52.894;6.040;2024-01-27T09:00:02;19.08;;;5.80;;
52530;SDS011;38441;52.894;6.040;2024-01-27T09:02:28;16.95;;;5.13;;
52530;SDS011;38441;52.894;6.040;2024-01-27T09:04:54;20.02;;;5.40;;
52530;SDS011;38441;52.894;6.040;2024-01-27T09:07:21;17.15;;;4.82;;
52530;SDS011;38441;52.894;6.040;2024-01-27T09:09:47;12.93;;;4.75;;
52530;SDS011;38441;52.894;6.040;2024-01-27T09:12:13;22.08;;;4.75;;
52530;SDS011;38441;52.894;6.040;2024-01-27T09:14:39;13.98;;;4.82;;
52530;SDS011;38441;52.894;6.040;2024-01-27T09:17:05;16.52;;;5.47;;
52530;SDS011;38441;52.894;6.040;2024-01-27T09:19:31;12.45;;;4.38;;
52530;SDS011;38441;52.894;6.040;2024-01-27T09:21:57;16.73;;;4.93;;
52530;SDS011;38441;52.894;6.040;2024-01-27T09:24:24;19.35;;;6.55;;
52530;SDS011;38441;52.894;6.040;2024-01-27T09:26:49;18.52;;;6.28;;
52530;SDS011;38441;52.894;6.040;2024-01-27T09:29:16;27.73;;;7.18;;
52530;SDS011;38441;52.894;6.040;2024-01-27T09:31:42;16.70;;;6.43;;
52530;SDS011;38441;52.894;6.040;2024-01-27T09:34:08;19.48;;;6.93;;
52530;SDS011;38441;52.894;6.040;2024-01-27T09:36:34;22.55;;;6.90;;
52530;SDS011;38441;52.894;6.040;2024-01-27T09:39:00;14.50;;;6.80;;
52530;SDS011;38441;52.894;6.040;2024-01-27T09:41:27;21.80;;;7.05;;
52530;SDS011;38441;52.894;6.040;2024-01-27T09:44:02;19.75;;;7.53;;
52530;SDS011;38441;52.894;6.040;2024-01-27T09:46:29;14.50;;;6.68;;
52530;SDS011;38441;52.894;6.040;2024-01-27T09:48:55;17.63;;;6.07;;
52530;SDS011;38441;52.894;6.040;2024-01-27T09:51:24;19.23;;;6.18;;
52530;SDS011;38441;52.894;6.040;2024-01-27T09:53:50;17.50;;;6.40;;
52530;SDS011;38441;52.894;6.040;2024-01-27T09:56:17;18.98;;;6.55;;
52530;SDS011;38441;52.894;6.040;2024-01-27T09:58:45;18.60;;;6.03;;
52530;SDS011;38441;52.894;6.040;2024-01-27T10:01:12;20.15;;;6.88;;
52530;SDS011;38441;52.894;6.040;2024-01-27T10:03:38;20.27;;;7.45;;
52530;SDS011;38441;52.894;6.040;2024-01-27T10:06:09;21.80;;;7.60;;
52530;SDS011;38441;52.894;6.040;2024-01-27T10:08:38;24.30;;;7.68;;
52530;SDS011;38441;52.894;6.040;2024-01-27T10:11:08;26.55;;;8.68;;
52530;SDS011;38441;52.894;6.040;2024-01-27T10:13:35;22.23;;;7.60;;
52530;SDS011;38441;52.894;6.040;2024-01-27T10:16:05;24.38;;;8.07;;
52530;SDS011;38441;52.894;6.040;2024-01-27T10:18:32;20.20;;;8.32;;
52530;SDS011;38441;52.894;6.040;2024-01-27T10:20:59;24.33;;;9.57;;
52530;SDS011;38441;52.894;6.040;2024-01-27T10:23:25;25.75;;;8.88;;
52530;SDS011;38441;52.894;6.040;2024-01-27T10:25:51;26.95;;;9.05;;
52530;SDS011;38441;52.894;6.040;2024-01-27T10:28:17;23.48;;;9.43;;
52530;SDS011;38441;52.894;6.040;2024-01-27T10:30:44;26.52;;;9.23;;
52530;SDS011;38441;52.894;6.040;2024-01-27T10:33:11;24.50;;;8.43;;
52530;SDS011;38441;52.894;6.040;2024-01-27T10:35:42;21.15;;;6.22;;
52530;SDS011;38441;52.894;6.040;2024-01-27T10:38:08;20.58;;;6.70;;
52530;SDS011;38441;52.894;6.040;2024-01-27T10:40:35;16.38;;;6.03;;
52530;SDS011;38441;52.894;6.040;2024-01-27T10:43:02;17.48;;;5.93;;
52530;SDS011;38441;52.894;6.040;2024-01-27T10:45:33;12.93;;;5.18;;
52530;SDS011;38441;52.894;6.040;2024-01-27T10:48:03;18.85;;;6.03;;
52530;SDS011;38441;52.894;6.040;2024-01-27T10:50:34;18.40;;;5.65;;
52530;SDS011;38441;52.894;6.040;2024-01-27T10:55:29;23.17;;;5.65;;
52530;SDS011;38441;52.894;6.040;2024-01-27T10:57:58;15.48;;;5.25;;
52530;SDS011;38441;52.894;6.040;2024-01-27T11:00:27;15.85;;;4.65;;
52530;SDS011;38441;52.894;6.040;2024-01-27T11:02:53;19.27;;;4.60;;
52530;SDS011;38441;52.894;6.040;2024-01-27T11:05:22;15.10;;;4.68;;
52530;SDS011;38441;52.894;6.040;2024-01-27T11:07:49;24.08;;;4.63;;
52530;SDS011;38441;52.894;6.040;2024-01-27T11:10:17;19.40;;;4.95;;
52530;SDS011;38441;52.894;6.040;2024-01-27T11:12:43;20.40;;;5.15;;
52530;SDS011;38441;52.894;6.040;2024-01-27T11:15:09;17.15;;;4.15;;
52530;SDS011;38441;52.894;6.040;2024-01-27T11:17:42;14.82;;;5.15;;
52530;SDS011;38441;52.894;6.040;2024-01-27T11:20:08;16.35;;;5.25;;
52530;SDS011;38441;52.894;6.040;2024-01-27T11:22:36;17.42;;;4.82;;
52530;SDS011;38441;52.894;6.040;2024-01-27T11:27:32;15.27;;;4.53;;
52530;SDS011;38441;52.894;6.040;2024-01-27T11:29:58;16.67;;;5.55;;
52530;SDS011;38441;52.894;6.040;2024-01-27T11:32:25;18.08;;;4.45;;
52530;SDS011;38441;52.894;6.040;2024-01-27T11:34:51;20.17;;;4.68;;
52530;SDS011;38441;52.894;6.040;2024-01-27T11:37:17;14.82;;;4.47;;
52530;SDS011;38441;52.894;6.040;2024-01-27T11:39:49;16.70;;;5.28;;
52530;SDS011;38441;52.894;6.040;2024-01-27T11:42:16;11.18;;;4.03;;
52530;SDS011;38441;52.894;6.040;2024-01-27T11:44:43;18.23;;;4.88;;
52530;SDS011;38441;52.894;6.040;2024-01-27T11:47:16;14.95;;;4.65;;
52530;SDS011;38441;52.894;6.040;2024-01-27T11:49:48;16.77;;;4.38;;
52530;SDS011;38441;52.894;6.040;2024-01-27T11:52:18;14.40;;;4.22;;
52530;SDS011;38441;52.894;6.040;2024-01-27T11:54:45;18.02;;;4.35;;
52530;SDS011;38441;52.894;6.040;2024-01-27T11:57:11;14.05;;;4.22;;
52530;SDS011;38441;52.894;6.040;2024-01-27T11:59:36;18.35;;;4.88;;
52530;SDS011;38441;52.894;6.040;2024-01-27T12:02:02;13.02;;;4.80;;
52530;SDS011;38441;52.894;6.040;2024-01-27T12:04:28;19.65;;;5.07;;
52530;SDS011;38441;52.894;6.040;2024-01-27T12:06:55;17.85;;;4.60;;
52530;SDS011;38441;52.894;6.040;2024-01-27T12:09:20;17.58;;;5.22;;
52530;SDS011;38441;52.894;6.040;2024-01-27T12:11:47;19.20;;;4.43;;
52530;SDS011;38441;52.894;6.040;2024-01-27T12:14:13;23.58;;;4.78;;
52530;SDS011;38441;52.894;6.040;2024-01-27T12:16:39;14.00;;;4.43;;
52530;SDS011;38441;52.894;6.040;2024-01-27T12:19:05;18.02;;;5.20;;
52530;SDS011;38441;52.894;6.040;2024-01-27T12:21:31;14.27;;;4.97;;
52530;SDS011;38441;52.894;6.040;2024-01-27T12:23:57;18.70;;;5.63;;
52530;SDS011;38441;52.894;6.040;2024-01-27T12:26:27;14.85;;;4.90;;
52530;SDS011;38441;52.894;6.040;2024-01-27T12:28:55;13.40;;;4.78;;
52530;SDS011;38441;52.894;6.040;2024-01-27T12:31:21;19.00;;;4.97;;
52530;SDS011;38441;52.894;6.040;2024-01-27T12:33:51;21.25;;;5.95;;
52530;SDS011;38441;52.894;6.040;2024-01-27T12:36:20;13.43;;;4.22;;
52530;SDS011;38441;52.894;6.040;2024-01-27T12:39:08;17.05;;;4.88;;
52530;SDS011;38441;52.894;6.040;2024-01-27T12:41:33;16.98;;;4.47;;
52530;SDS011;38441;52.894;6.040;2024-01-27T12:43:59;17.90;;;3.95;;
52530;SDS011;38441;52.894;6.040;2024-01-27T12:46:26;22.95;;;5.72;;
52530;SDS011;38441;52.894;6.040;2024-01-27T12:48:52;14.98;;;4.95;;
52530;SDS011;38441;52.894;6.040;2024-01-27T12:51:18;24.67;;;6.45;;
52530;SDS011;38441;52.894;6.040;2024-01-27T12:53:44;12.85;;;4.03;;
52530;SDS011;38441;52.894;6.040;2024-01-27T12:56:11;15.55;;;4.40;;
52530;SDS011;38441;52.894;6.040;2024-01-27T12:58:38;14.23;;;4.47;;
52530;SDS011;38441;52.894;6.040;2024-01-27T13:01:05;17.40;;;4.47;;
52530;SDS011;38441;52.894;6.040;2024-01-27T13:03:31;14.88;;;4.75;;
52530;SDS011;38441;52.894;6.040;2024-01-27T13:05:56;13.75;;;5.05;;
52530;SDS011;38441;52.894;6.040;2024-01-27T13:08:22;17.67;;;5.30;;
52530;SDS011;38441;52.894;6.040;2024-01-27T13:10:48;16.17;;;5.05;;
52530;SDS011;38441;52.894;6.040;2024-01-27T13:13:14;17.67;;;5.60;;
52530;SDS011;38441;52.894;6.040;2024-01-27T13:15:40;16.92;;;5.18;;
52530;SDS011;38441;52.894;6.040;2024-01-27T13:18:05;18.02;;;5.22;;
52530;SDS011;38441;52.894;6.040;2024-01-27T13:20:32;18.20;;;4.47;;
52530;SDS011;38441;52.894;6.040;2024-01-27T13:23:01;17.15;;;5.45;;
52530;SDS011;38441;52.894;6.040;2024-01-27T13:25:26;11.80;;;5.65;;
52530;SDS011;38441;52.894;6.040;2024-01-27T13:27:52;17.63;;;5.22;;
52530;SDS011;38441;52.894;6.040;2024-01-27T13:30:18;14.93;;;4.78;;
52530;SDS011;38441;52.894;6.040;2024-01-27T13:32:44;16.63;;;4.72;;
52530;SDS011;38441;52.894;6.040;2024-01-27T13:35:10;18.08;;;4.78;;
52530;SDS011;38441;52.894;6.040;2024-01-27T13:37:36;16.17;;;4.88;;
52530;SDS011;38441;52.894;6.040;2024-01-27T13:40:02;18.90;;;5.30;;
52530;SDS011;38441;52.894;6.040;2024-01-27T13:42:29;16.50;;;5.47;;
52530;SDS011;38441;52.894;6.040;2024-01-27T13:44:56;18.83;;;5.30;;
52530;SDS011;38441;52.894;6.040;2024-01-27T13:47:21;18.15;;;4.78;;
52530;SDS011;38441;52.894;6.040;2024-01-27T13:49:47;16.90;;;5.15;;
52530;SDS011;38441;52.894;6.040;2024-01-27T13:52:13;13.95;;;4.68;;
52530;SDS011;38441;52.894;6.040;2024-01-27T13:54:39;20.35;;;6.30;;
52530;SDS011;38441;52.894;6.040;2024-01-27T13:57:05;16.70;;;5.68;;
52530;SDS011;38441;52.894;6.040;2024-01-27T13:59:32;11.98;;;4.38;;
52530;SDS011;38441;52.894;6.040;2024-01-27T14:01:58;19.63;;;5.35;;
52530;SDS011;38441;52.894;6.040;2024-01-27T14:04:24;14.05;;;5.00;;
52530;SDS011;38441;52.894;6.040;2024-01-27T14:06:51;16.35;;;5.25;;
52530;SDS011;38441;52.894;6.040;2024-01-27T14:09:20;15.90;;;5.50;;
52530;SDS011;38441;52.894;6.040;2024-01-27T14:11:46;23.42;;;5.10;;
52530;SDS011;38441;52.894;6.040;2024-01-27T14:14:12;16.05;;;4.65;;
52530;SDS011;38441;52.894;6.040;2024-01-27T14:16:37;21.50;;;5.07;;
52530;SDS011;38441;52.894;6.040;2024-01-27T14:19:04;19.52;;;5.18;;
52530;SDS011;38441;52.894;6.040;2024-01-27T14:21:31;14.65;;;5.00;;
52530;SDS011;38441;52.894;6.040;2024-01-27T14:23:57;23.35;;;5.00;;
52530;SDS011;38441;52.894;6.040;2024-01-27T14:26:30;33.35;;;6.15;;
52530;SDS011;38441;52.894;6.040;2024-01-27T14:28:56;17.45;;;5.72;;
52530;SDS011;38441;52.894;6.040;2024-01-27T14:31:21;19.40;;;5.22;;
52530;SDS011;38441;52.894;6.040;2024-01-27T14:33:47;16.52;;;4.45;;
52530;SDS011;38441;52.894;6.040;2024-01-27T14:36:13;13.63;;;4.80;;
52530;SDS011;38441;52.894;6.040;2024-01-27T14:38:39;27.13;;;6.45;;